createdAt,value
2023-05-22T00:00:24.626Z,23.50
2023-05-22T00:01:24.623Z,23.55
2023-05-22T00:02:24.714Z,23.60
2023-05-22T00:03:24.707Z,23.64
2023-05-22T00:04:24.592Z,23.68
2023-05-22T00:05:24.628Z,23.73
2023-05-22T00:06:24.641Z,23.77
2023-05-22T00:07:24.601Z,23.81
2023-05-22T00:08:24.712Z,23.86
2023-05-22T00:09:24.584Z,23.89
2023-05-22T00:10:24.590Z,23.92
2023-05-22T00:11:24.561Z,23.96
2023-05-22T00:12:24.556Z,23.99
2023-05-22T00:13:24.579Z,24.02
2023-05-22T00:14:24.533Z,24.05
2023-05-22T00:15:24.524Z,24.07
2023-05-22T00:16:24.535Z,24.09
2023-05-22T00:17:24.625Z,24.11
2023-05-22T00:18:24.506Z,24.13
2023-05-22T00:19:24.524Z,24.16
2023-05-22T00:20:24.484Z,24.16
2023-05-22T00:21:24.512Z,24.19
2023-05-22T00:22:24.581Z,24.20
2023-05-22T00:23:24.577Z,24.21
2023-05-22T00:24:24.597Z,24.22
2023-05-22T00:25:24.609Z,24.23
2023-05-22T00:26:24.643Z,24.24
2023-05-22T00:27:24.673Z,24.24
2023-05-22T00:28:24.697Z,24.25
2023-05-22T00:29:24.728Z,24.25
2023-05-22T00:30:24.715Z,24.26
2023-05-22T00:31:24.776Z,24.26
2023-05-22T00:32:24.825Z,24.26
2023-05-22T00:33:24.788Z,24.27
2023-05-22T00:34:24.848Z,24.27
2023-05-22T00:35:24.836Z,24.28
2023-05-22T00:36:24.864Z,24.27
2023-05-22T00:37:24.906Z,24.28
2023-05-22T00:38:24.902Z,24.28
2023-05-22T00:39:24.931Z,24.30
2023-05-22T00:40:24.949Z,24.29
2023-05-22T00:41:24.967Z,24.29
2023-05-22T00:42:25.007Z,24.29
2023-05-22T00:43:25.028Z,24.29
2023-05-22T00:44:25.066Z,24.30
2023-05-22T00:45:25.200Z,24.30
2023-05-22T00:46:25.134Z,24.30
2023-05-22T00:47:25.147Z,24.31
2023-05-22T00:48:25.145Z,24.30
2023-05-22T00:49:25.153Z,24.30
2023-05-22T00:50:25.178Z,24.30
2023-05-22T00:51:25.214Z,24.30
2023-05-22T00:52:25.225Z,24.30
2023-05-22T00:53:25.271Z,24.30
2023-05-22T00:54:25.279Z,24.30
2023-05-22T00:55:25.303Z,24.31
2023-05-22T00:56:25.321Z,24.29
2023-05-22T00:57:25.359Z,24.30
2023-05-22T00:58:25.384Z,24.30
2023-05-22T00:59:25.409Z,24.30
2023-05-22T01:00:25.444Z,24.29
2023-05-22T01:01:25.513Z,24.30
2023-05-22T01:02:25.485Z,24.30
2023-05-22T01:03:25.620Z,24.30
2023-05-22T01:04:25.535Z,24.30
2023-05-22T01:05:25.567Z,24.29
2023-05-22T01:06:25.600Z,24.30
2023-05-22T01:07:25.630Z,24.29
2023-05-22T01:08:25.677Z,24.29
2023-05-22T01:09:25.693Z,24.29
2023-05-22T01:10:25.724Z,24.28
2023-05-22T01:11:25.761Z,24.29
2023-05-22T01:12:25.783Z,24.29
2023-05-22T01:13:25.820Z,24.28
2023-05-22T01:14:25.943Z,24.29
2023-05-22T01:15:25.965Z,24.28
2023-05-22T01:16:25.970Z,24.29
2023-05-22T01:17:25.978Z,24.28
2023-05-22T01:18:26.029Z,24.28
2023-05-22T01:19:26.057Z,24.28
2023-05-22T01:20:26.035Z,24.28
2023-05-22T01:21:26.033Z,24.28
2023-05-22T01:22:26.062Z,24.28
2023-05-22T01:23:26.086Z,24.27
2023-05-22T01:24:26.238Z,24.28
2023-05-22T01:25:26.136Z,24.27
2023-05-22T01:26:26.179Z,24.27
2023-05-22T01:27:26.356Z,24.27
2023-05-22T01:28:26.245Z,24.27
2023-05-22T01:29:26.286Z,24.27
2023-05-22T01:30:26.310Z,24.28
2023-05-22T01:31:26.451Z,24.28
2023-05-22T01:32:26.423Z,24.27
2023-05-22T01:33:26.623Z,24.27
2023-05-22T01:34:26.425Z,24.27
2023-05-22T01:35:26.456Z,24.27
2023-05-22T01:36:26.496Z,24.27
2023-05-22T01:37:26.540Z,24.27
2023-05-22T01:38:26.555Z,24.27
2023-05-22T01:39:26.604Z,24.27
2023-05-22T01:40:26.626Z,24.27
2023-05-22T01:41:26.666Z,24.27
2023-05-22T01:42:26.690Z,24.26
2023-05-22T01:43:26.728Z,24.26
2023-05-22T01:44:26.766Z,24.26
2023-05-22T01:45:26.803Z,24.26
2023-05-22T01:46:26.895Z,24.26
2023-05-22T01:47:26.920Z,24.26
2023-05-22T01:48:26.906Z,24.26
2023-05-22T01:49:26.965Z,24.26
2023-05-22T01:50:26.973Z,24.26
2023-05-22T01:51:26.997Z,24.26
2023-05-22T01:52:27.034Z,24.26
2023-05-22T01:53:27.050Z,24.26
2023-05-22T01:54:27.089Z,24.25
2023-05-22T01:55:27.133Z,24.25
2023-05-22T01:56:27.180Z,24.25
2023-05-22T01:57:27.184Z,24.26
2023-05-22T01:58:27.213Z,24.25
2023-05-22T01:59:27.246Z,24.24
2023-05-22T02:00:27.272Z,24.25
2023-05-22T02:01:27.397Z,24.24
2023-05-22T02:02:27.401Z,24.25
2023-05-22T02:03:27.479Z,24.25
2023-05-22T02:04:27.401Z,24.24
2023-05-22T02:05:27.491Z,24.24
2023-05-22T02:06:27.484Z,24.25
2023-05-22T02:07:27.521Z,24.25
2023-05-22T02:08:27.567Z,24.24
2023-05-22T02:09:27.586Z,24.25
2023-05-22T02:10:27.640Z,24.24
2023-05-22T02:11:27.640Z,24.24
2023-05-22T02:12:27.670Z,24.23
2023-05-22T02:13:27.700Z,24.24
2023-05-22T02:14:27.732Z,24.23
2023-05-22T02:15:27.806Z,24.24
2023-05-22T02:16:27.805Z,24.24
2023-05-22T02:17:27.886Z,24.23
2023-05-22T02:18:27.860Z,24.23
2023-05-22T02:19:27.959Z,24.23
2023-05-22T02:20:27.933Z,24.23
2023-05-22T02:21:27.998Z,24.23
2023-05-22T02:22:28.013Z,24.24
2023-05-22T02:23:28.033Z,24.23
2023-05-22T02:24:28.056Z,24.23
2023-05-22T02:25:28.095Z,24.24
2023-05-22T02:26:28.130Z,24.23
2023-05-22T02:27:28.157Z,24.22
2023-05-22T02:28:28.204Z,24.23
2023-05-22T02:29:28.225Z,24.23
2023-05-22T02:30:28.255Z,24.22
2023-05-22T02:31:28.324Z,24.22
2023-05-22T02:32:28.425Z,24.22
2023-05-22T02:33:28.379Z,24.22
2023-05-22T02:34:28.410Z,24.22
2023-05-22T02:35:28.422Z,24.22
2023-05-22T02:36:28.466Z,24.22
2023-05-22T02:37:28.529Z,24.21
2023-05-22T02:38:28.534Z,24.20
2023-05-22T02:39:28.565Z,24.21
2023-05-22T02:40:28.584Z,24.21
2023-05-22T02:41:28.627Z,24.21
2023-05-22T02:42:28.661Z,24.21
2023-05-22T02:43:28.689Z,24.21
2023-05-22T02:44:28.730Z,24.21
2023-05-22T02:45:28.770Z,24.21
2023-05-22T02:46:28.808Z,24.21
2023-05-22T02:47:28.868Z,24.21
2023-05-22T02:48:28.926Z,24.21
2023-05-22T02:49:28.916Z,24.20
2023-05-22T02:50:28.963Z,24.20
2023-05-22T02:51:28.997Z,24.20
2023-05-22T02:52:29.031Z,24.20
2023-05-22T02:53:29.087Z,24.20
2023-05-22T02:54:29.101Z,24.20
2023-05-22T02:55:29.147Z,24.20
2023-05-22T02:56:29.167Z,24.20
2023-05-22T02:57:29.226Z,24.20
2023-05-22T02:58:29.233Z,24.19
2023-05-22T02:59:29.269Z,24.19
2023-05-22T03:00:29.314Z,24.20
2023-05-22T03:01:29.384Z,24.19
2023-05-22T03:02:29.459Z,24.19
2023-05-22T03:03:29.533Z,24.19
2023-05-22T03:04:29.473Z,24.19
2023-05-22T03:05:29.529Z,24.19
2023-05-22T03:06:29.548Z,24.19
2023-05-22T03:07:29.738Z,24.19
2023-05-22T03:08:29.617Z,24.19
2023-05-22T03:09:29.666Z,24.18
2023-05-22T03:10:29.685Z,24.18
2023-05-22T03:11:29.722Z,24.18
2023-05-22T03:12:29.751Z,24.18
2023-05-22T03:13:29.820Z,24.18
2023-05-22T03:14:29.816Z,24.18
2023-05-22T03:15:29.869Z,24.18
2023-05-22T03:16:29.980Z,24.18
2023-05-22T03:17:29.966Z,24.18
2023-05-22T03:18:29.985Z,24.17
2023-05-22T03:19:30.064Z,24.18
2023-05-22T03:20:30.045Z,24.19
2023-05-22T03:21:30.086Z,24.17
2023-05-22T03:22:30.142Z,24.18
2023-05-22T03:23:30.167Z,24.18
2023-05-22T03:24:30.206Z,24.18
2023-05-22T03:25:30.273Z,24.18
2023-05-22T03:26:30.304Z,24.18
2023-05-22T03:27:30.314Z,24.17
2023-05-22T03:28:30.472Z,24.17
2023-05-22T03:29:30.410Z,24.17
2023-05-22T03:30:30.436Z,24.17
2023-05-22T03:31:30.467Z,24.16
2023-05-22T03:32:30.552Z,24.17
2023-05-22T03:33:30.584Z,24.17
2023-05-22T03:34:30.594Z,24.17
2023-05-22T03:35:30.634Z,24.17
2023-05-22T03:36:32.499Z,24.17
2023-05-22T03:37:30.676Z,24.16
2023-05-22T03:38:30.659Z,24.17
2023-05-22T03:39:30.646Z,24.16
2023-05-22T03:40:30.631Z,24.17
2023-05-22T03:41:30.660Z,24.16
2023-05-22T03:42:30.629Z,24.16
2023-05-22T03:43:30.618Z,24.17
2023-05-22T03:44:30.621Z,24.16
2023-05-22T03:45:30.635Z,24.16
2023-05-22T03:46:30.610Z,24.15
2023-05-22T03:47:30.626Z,24.16
2023-05-22T03:48:30.651Z,24.16
2023-05-22T03:49:30.582Z,24.15
2023-05-22T03:50:30.572Z,24.15
2023-05-22T03:51:30.568Z,24.16
2023-05-22T03:52:30.570Z,24.17
2023-05-22T03:53:30.550Z,24.16
2023-05-22T03:54:30.546Z,24.16
2023-05-22T03:55:30.537Z,24.17
2023-05-22T03:56:30.532Z,24.16
2023-05-22T03:57:30.554Z,24.17
2023-05-22T03:58:30.515Z,24.17
2023-05-22T03:59:30.518Z,24.16
2023-05-22T04:00:30.493Z,24.17
2023-05-22T04:01:30.514Z,24.17
2023-05-22T04:02:30.621Z,24.17
2023-05-22T04:03:30.561Z,24.17
2023-05-22T04:04:30.493Z,24.16
2023-05-22T04:05:30.678Z,24.16
2023-05-22T04:06:30.466Z,24.16
2023-05-22T04:07:30.445Z,24.17
2023-05-22T04:08:30.441Z,24.16
2023-05-22T04:09:30.435Z,24.17
2023-05-22T04:10:30.415Z,24.16
2023-05-22T04:11:30.493Z,24.16
2023-05-22T04:12:30.468Z,24.16
2023-05-22T04:13:30.528Z,24.16
2023-05-22T04:14:30.543Z,24.16
2023-05-22T04:15:30.581Z,24.16
2023-05-22T04:16:30.663Z,24.16
2023-05-22T04:17:30.696Z,24.16
2023-05-22T04:18:30.698Z,24.16
2023-05-22T04:19:30.774Z,24.16
2023-05-22T04:20:30.775Z,24.17
2023-05-22T04:21:30.800Z,24.16
2023-05-22T04:22:30.841Z,24.16
2023-05-22T04:23:30.870Z,24.16
2023-05-22T04:24:30.893Z,24.17
2023-05-22T04:25:30.934Z,24.17
2023-05-22T04:26:30.967Z,24.16
2023-05-22T04:27:31.006Z,24.16
2023-05-22T04:28:31.048Z,24.15
2023-05-22T04:29:31.102Z,24.17
2023-05-22T04:30:31.098Z,24.16
2023-05-22T04:31:31.165Z,24.15
2023-05-22T04:32:31.187Z,24.15
2023-05-22T04:33:31.205Z,24.16
2023-05-22T04:34:31.243Z,24.15
2023-05-22T04:35:31.284Z,24.15
2023-05-22T04:36:31.317Z,24.15
2023-05-22T04:37:31.340Z,24.16
2023-05-22T04:38:31.381Z,24.17
2023-05-22T04:39:31.412Z,24.16
2023-05-22T04:40:31.462Z,24.15
2023-05-22T04:41:31.501Z,24.16
2023-05-22T04:42:31.547Z,24.16
2023-05-22T04:43:31.576Z,24.17
2023-05-22T04:44:31.612Z,24.17
2023-05-22T04:45:31.689Z,24.17
2023-05-22T04:46:31.757Z,24.17
2023-05-22T04:47:31.954Z,24.17
2023-05-22T04:48:31.767Z,24.16
2023-05-22T04:49:31.807Z,24.17
2023-05-22T04:50:31.845Z,24.17
2023-05-22T04:51:31.900Z,24.17
2023-05-22T04:52:31.931Z,24.18
2023-05-22T04:53:31.963Z,24.17
2023-05-22T04:54:32.017Z,24.18
2023-05-22T04:55:32.076Z,24.18
2023-05-22T04:56:36.738Z,24.17
2023-05-22T04:57:32.090Z,24.17
2023-05-22T04:58:32.069Z,24.17
2023-05-22T04:59:32.062Z,24.17
2023-05-22T05:00:32.109Z,24.17
2023-05-22T05:01:33.309Z,24.17
2023-05-22T05:02:32.211Z,24.17
2023-05-22T05:03:32.274Z,24.17
2023-05-22T05:04:32.269Z,24.17
2023-05-22T05:05:32.308Z,24.18
2023-05-22T05:06:32.346Z,24.17
2023-05-22T05:07:32.381Z,24.18
2023-05-22T05:08:32.407Z,24.17
2023-05-22T05:09:32.463Z,24.17
2023-05-22T05:10:32.484Z,24.17
2023-05-22T05:11:32.539Z,24.18
2023-05-22T05:12:32.563Z,24.17
2023-05-22T05:13:32.596Z,24.17
2023-05-22T05:14:32.954Z,24.18
2023-05-22T05:15:32.705Z,24.18
2023-05-22T05:16:32.737Z,24.17
2023-05-22T05:17:32.815Z,24.18
2023-05-22T05:18:32.788Z,24.17
2023-05-22T05:19:34.721Z,24.17
2023-05-22T05:20:32.829Z,24.17
2023-05-22T05:21:32.815Z,24.15
2023-05-22T05:22:32.831Z,24.15
2023-05-22T05:23:32.814Z,24.17
2023-05-22T05:24:32.851Z,24.17
2023-05-22T05:25:32.789Z,24.18
2023-05-22T05:26:32.781Z,24.19
2023-05-22T05:27:32.967Z,24.18
2023-05-22T05:28:32.767Z,24.19
2023-05-22T05:29:32.768Z,24.19
2023-05-22T05:30:32.752Z,24.19
2023-05-22T05:31:33.028Z,24.20
2023-05-22T05:32:32.759Z,24.20
2023-05-22T05:33:32.858Z,24.20
2023-05-22T05:34:32.741Z,24.21
2023-05-22T05:35:32.969Z,24.21
2023-05-22T05:36:32.752Z,24.21
2023-05-22T05:37:32.745Z,24.22
2023-05-22T05:38:32.704Z,24.21
2023-05-22T05:39:32.706Z,24.22
2023-05-22T05:40:32.701Z,24.22
2023-05-22T05:41:32.693Z,24.22
2023-05-22T05:42:32.680Z,24.22
2023-05-22T05:43:32.711Z,24.23
2023-05-22T05:44:32.972Z,24.23
2023-05-22T05:45:32.665Z,24.23
2023-05-22T05:46:32.677Z,24.23
2023-05-22T05:47:40.463Z,24.23
2023-05-22T05:48:32.675Z,24.23
2023-05-22T05:49:35.642Z,24.23
2023-05-22T05:50:32.640Z,24.23
2023-05-22T05:51:32.634Z,24.24
2023-05-22T05:52:32.984Z,24.24
2023-05-22T05:53:32.627Z,24.24
2023-05-22T05:54:32.622Z,24.25
2023-05-22T05:55:40.104Z,24.26
2023-05-22T05:56:32.974Z,24.26
2023-05-22T05:57:35.807Z,24.26
2023-05-22T05:58:32.580Z,24.27
2023-05-22T05:59:32.573Z,24.28
2023-05-22T06:00:40.293Z,24.29
2023-05-22T06:01:40.441Z,24.28
2023-05-22T06:02:35.807Z,24.29
2023-05-22T06:04:04.466Z,24.29
2023-05-22T06:04:46.851Z,24.29
2023-05-22T06:06:04.371Z,24.28
2023-05-22T06:06:32.519Z,24.28
2023-05-22T06:08:04.348Z,24.28
2023-05-22T06:08:35.738Z,24.28
2023-05-22T06:10:37.119Z,24.29
2023-05-22T06:11:48.350Z,24.27
2023-05-22T06:12:48.295Z,24.27
2023-05-22T06:13:32.714Z,24.26
2023-05-22T06:14:32.701Z,24.27
2023-05-22T06:15:40.444Z,24.27
2023-05-22T06:16:33.428Z,24.28
2023-05-22T06:17:32.887Z,24.27
2023-05-22T06:18:32.782Z,24.27
2023-05-22T06:19:32.873Z,24.27
2023-05-22T06:20:33.880Z,24.27
2023-05-22T06:21:32.643Z,24.27
2023-05-22T06:22:32.986Z,24.27
2023-05-22T06:23:32.628Z,24.27
2023-05-22T06:24:32.649Z,24.27
2023-05-22T06:25:32.632Z,24.26
2023-05-22T06:26:32.662Z,24.27
2023-05-22T06:27:32.658Z,24.27
2023-05-22T06:28:32.669Z,24.27
2023-05-22T06:29:32.709Z,24.27
2023-05-22T06:30:40.230Z,24.27
2023-05-22T06:31:32.719Z,24.26
2023-05-22T06:32:33.229Z,24.27
2023-05-22T06:33:32.804Z,24.27
2023-05-22T06:34:32.913Z,24.27
2023-05-22T06:35:33.695Z,24.27
2023-05-22T06:36:32.749Z,24.27
2023-05-22T06:37:33.198Z,24.27
2023-05-22T06:38:32.672Z,24.26
2023-05-22T06:39:40.076Z,24.27
2023-05-22T06:40:32.686Z,24.27
2023-05-22T06:41:32.658Z,24.27
2023-05-22T06:42:32.830Z,24.27
2023-05-22T06:43:32.778Z,24.27
2023-05-22T06:44:33.683Z,24.27
2023-05-22T06:45:32.647Z,24.27
2023-05-22T06:46:32.708Z,24.27
2023-05-22T06:47:33.084Z,24.27
2023-05-22T06:48:32.614Z,24.26
2023-05-22T06:49:32.985Z,24.27
2023-05-22T06:50:32.605Z,24.27
2023-05-22T06:51:32.606Z,24.27
2023-05-22T06:52:33.057Z,24.27
2023-05-22T06:53:32.572Z,24.27
2023-05-22T06:54:32.572Z,24.26
2023-05-22T06:55:32.577Z,24.27
2023-05-22T06:56:32.562Z,24.27
2023-05-22T06:57:33.530Z,24.26
2023-05-22T06:58:32.569Z,24.27
2023-05-22T06:59:32.786Z,24.27
2023-05-22T07:00:36.596Z,24.27
2023-05-22T07:01:32.893Z,24.27
2023-05-22T07:02:33.125Z,24.27
2023-05-22T07:03:32.620Z,24.27
2023-05-22T07:04:32.577Z,24.27
2023-05-22T07:05:32.602Z,24.27
2023-05-22T07:06:32.564Z,24.27
2023-05-22T07:07:32.631Z,24.28
2023-05-22T07:08:32.648Z,24.28
2023-05-22T07:09:32.782Z,24.27
2023-05-22T07:10:32.609Z,24.28
2023-05-22T07:11:33.031Z,24.28
2023-05-22T07:12:32.647Z,24.28
2023-05-22T07:13:33.009Z,24.27
2023-05-22T07:14:33.517Z,24.27
2023-05-22T07:15:32.500Z,24.27
2023-05-22T07:16:32.547Z,24.27
2023-05-22T07:17:33.029Z,24.28
2023-05-22T07:18:32.558Z,24.28
2023-05-22T07:19:32.633Z,24.29
2023-05-22T07:20:32.605Z,24.28
2023-05-22T07:21:32.633Z,24.28
2023-05-22T07:22:32.657Z,24.28
2023-05-22T07:23:33.010Z,24.28
2023-05-22T07:24:32.723Z,24.28
2023-05-22T07:25:32.708Z,24.29
2023-05-22T07:26:31.748Z,24.29
2023-05-22T07:27:32.781Z,24.29
2023-05-22T07:28:33.014Z,24.29
2023-05-22T07:29:36.024Z,24.29
2023-05-22T07:30:32.818Z,24.29
2023-05-22T07:31:36.013Z,24.29
2023-05-22T07:32:32.851Z,24.29
2023-05-22T07:33:33.037Z,24.29
2023-05-22T07:34:32.830Z,24.29
2023-05-22T07:35:35.998Z,24.31
2023-05-22T07:36:32.821Z,24.30
2023-05-22T07:37:35.964Z,24.30
2023-05-22T07:38:33.020Z,24.31
2023-05-22T07:39:32.765Z,24.32
2023-05-22T07:40:48.407Z,24.34
2023-05-22T07:41:35.952Z,24.36
2023-05-22T07:42:32.747Z,24.37
2023-05-22T07:43:33.035Z,24.40
2023-05-22T07:44:32.749Z,24.41
2023-05-22T07:45:32.725Z,24.43
2023-05-22T07:47:48.660Z,24.46
2023-05-22T07:48:40.093Z,24.48
2023-05-22T07:49:33.028Z,24.50
2023-05-22T07:50:32.669Z,24.52
2023-05-22T07:51:35.863Z,24.55
2023-05-22T07:52:32.681Z,24.57
2023-05-22T07:53:32.644Z,24.59
2023-05-22T07:54:33.369Z,24.61
2023-05-22T07:56:04.450Z,24.64
2023-05-22T07:57:32.622Z,24.69
2023-05-22T07:58:33.044Z,24.71
2023-05-22T07:59:32.610Z,24.74
2023-05-22T08:00:32.636Z,24.75
2023-05-22T08:01:32.586Z,24.77
2023-05-22T08:02:33.044Z,24.79
2023-05-22T08:03:33.178Z,24.80
2023-05-22T08:04:32.652Z,24.82
2023-05-22T08:05:33.025Z,24.83
2023-05-22T08:06:32.559Z,24.83
2023-05-22T08:07:32.580Z,24.84
2023-05-22T08:08:33.164Z,24.86
2023-05-22T08:09:32.540Z,24.87
2023-05-22T08:10:46.455Z,24.89
2023-05-22T08:11:32.643Z,24.90
2023-05-22T08:12:36.217Z,24.92
2023-05-22T08:13:39.942Z,24.92
2023-05-22T08:14:32.547Z,24.94
2023-05-22T08:15:32.506Z,24.94
2023-05-22T08:16:32.568Z,24.96
2023-05-22T08:17:32.562Z,24.98
2023-05-22T08:18:32.490Z,24.97
2023-05-22T08:19:32.641Z,24.99
2023-05-22T08:20:32.501Z,25.00
2023-05-22T08:21:32.473Z,25.02
2023-05-22T08:22:32.461Z,25.02
2023-05-22T08:23:32.544Z,25.04
2023-05-22T08:24:32.447Z,25.03
2023-05-22T08:25:32.465Z,25.05
2023-05-22T08:26:32.421Z,25.06
2023-05-22T08:27:32.495Z,25.07
2023-05-22T08:28:32.521Z,25.08
2023-05-22T08:29:32.397Z,25.10
2023-05-22T08:30:32.385Z,25.09
2023-05-22T08:31:32.465Z,25.10
2023-05-22T08:32:32.586Z,25.11
2023-05-22T08:33:32.371Z,25.12
2023-05-22T08:34:32.536Z,25.12
2023-05-22T08:35:32.382Z,25.13
2023-05-22T08:36:32.386Z,25.15
2023-05-22T08:37:32.450Z,25.16
2023-05-22T08:38:32.525Z,25.16
2023-05-22T08:39:33.033Z,25.16
2023-05-22T08:40:32.612Z,25.17
2023-05-22T08:41:32.659Z,25.18
2023-05-22T08:42:40.140Z,25.18
2023-05-22T08:43:32.743Z,25.17
2023-05-22T08:44:33.067Z,25.17
2023-05-22T08:45:32.702Z,25.18
2023-05-22T08:46:32.710Z,25.19
2023-05-22T08:47:33.073Z,25.19
2023-05-22T08:48:32.677Z,25.19
2023-05-22T08:49:32.671Z,25.21
2023-05-22T08:50:32.673Z,25.22
2023-05-22T08:51:32.648Z,25.23
2023-05-22T08:52:33.049Z,25.23
2023-05-22T08:53:32.659Z,25.24
2023-05-22T08:54:32.625Z,25.24
2023-05-22T08:55:32.613Z,25.24
2023-05-22T08:56:33.521Z,25.25
2023-05-22T08:57:40.518Z,25.25
2023-05-22T08:58:32.774Z,25.25
2023-05-22T08:59:32.588Z,25.25
2023-05-22T09:00:32.573Z,25.26
2023-05-22T09:01:32.649Z,25.26
2023-05-22T09:02:33.104Z,25.25
2023-05-22T09:03:33.340Z,25.26
2023-05-22T09:04:32.602Z,25.27
2023-05-22T09:05:32.544Z,25.27
2023-05-22T09:06:32.542Z,25.27
2023-05-22T09:07:35.733Z,25.28
2023-05-22T09:08:32.530Z,25.28
2023-05-22T09:09:32.563Z,25.30
2023-05-22T09:10:32.508Z,25.30
2023-05-22T09:11:32.560Z,25.30
2023-05-22T09:12:32.504Z,25.30
2023-05-22T09:13:32.495Z,25.32
2023-05-22T09:14:32.511Z,25.33
2023-05-22T09:15:32.502Z,25.33
2023-05-22T09:16:32.537Z,25.33
2023-05-22T09:17:32.514Z,25.34
2023-05-22T09:18:32.555Z,25.33
2023-05-22T09:19:32.568Z,25.33
2023-05-22T09:20:32.552Z,25.34
2023-05-22T09:21:32.465Z,25.33
2023-05-22T09:22:32.559Z,25.34
2023-05-22T09:23:32.423Z,25.33
2023-05-22T09:24:32.422Z,25.34
2023-05-22T09:25:32.700Z,25.34
2023-05-22T09:26:32.512Z,25.33
2023-05-22T09:27:33.053Z,25.32
2023-05-22T09:28:39.966Z,25.31
2023-05-22T09:29:32.416Z,25.30
2023-05-22T09:30:32.511Z,25.29
2023-05-22T09:31:32.437Z,25.28
2023-05-22T09:32:32.421Z,25.28
2023-05-22T09:33:33.592Z,25.28
2023-05-22T09:34:32.374Z,25.26
2023-05-22T09:35:33.552Z,25.25
2023-05-22T09:36:33.386Z,25.26
2023-05-22T09:37:32.349Z,25.27
2023-05-22T09:38:32.357Z,25.26
2023-05-22T09:39:32.403Z,25.26
2023-05-22T09:40:32.555Z,25.27
2023-05-22T09:41:32.549Z,25.28
2023-05-22T09:42:36.273Z,25.28
2023-05-22T09:43:32.744Z,25.28
2023-05-22T09:44:32.554Z,25.28
2023-05-22T09:46:32.640Z,25.26
2023-05-22T09:47:32.655Z,25.27
2023-05-22T09:48:33.522Z,25.26
2023-05-22T09:49:32.502Z,25.25
2023-05-22T09:50:32.506Z,25.25
2023-05-22T09:51:32.495Z,25.24
2023-05-22T09:52:32.510Z,25.25
2023-05-22T09:53:32.569Z,25.25
2023-05-22T09:54:32.564Z,25.25
2023-05-22T09:55:32.485Z,25.24
2023-05-22T09:56:39.162Z,25.25
2023-05-22T09:57:32.452Z,25.23
2023-05-22T09:58:32.455Z,25.24
2023-05-22T09:59:32.438Z,25.24
2023-05-22T10:00:32.420Z,25.24
2023-05-22T10:01:32.474Z,25.24
2023-05-22T10:02:32.533Z,25.25
2023-05-22T10:03:32.565Z,25.26
2023-05-22T10:04:32.481Z,25.26
2023-05-22T10:05:32.428Z,25.26
2023-05-22T10:06:32.389Z,25.26
2023-05-22T10:07:32.388Z,25.26
2023-05-22T10:08:32.573Z,25.26
2023-05-22T10:09:32.366Z,25.27
2023-05-22T10:10:32.367Z,25.26
2023-05-22T10:11:32.370Z,25.27
2023-05-22T10:12:32.348Z,25.27
2023-05-22T10:13:32.566Z,25.26
2023-05-22T10:14:32.660Z,25.28
2023-05-22T10:15:32.333Z,25.27
2023-05-22T10:16:32.414Z,25.29
2023-05-22T10:17:32.376Z,25.31
2023-05-22T10:18:32.694Z,25.31
2023-05-22T10:19:32.391Z,25.31
2023-05-22T10:20:32.296Z,25.31
2023-05-22T10:21:32.294Z,25.30
2023-05-22T10:22:32.283Z,25.29
2023-05-22T10:23:32.578Z,25.28
2023-05-22T10:24:32.574Z,25.27
2023-05-22T10:25:32.263Z,25.27
2023-05-22T10:26:32.254Z,25.26
2023-05-22T10:27:32.242Z,25.24
2023-05-22T10:28:32.573Z,25.23
2023-05-22T10:29:32.235Z,25.22
2023-05-22T10:30:32.296Z,25.20
2023-05-22T10:31:32.302Z,25.20
2023-05-22T10:32:32.628Z,25.18
2023-05-22T10:33:32.480Z,25.17
2023-05-22T10:34:32.621Z,25.16
2023-05-22T10:35:32.544Z,25.16
2023-05-22T10:36:32.606Z,25.15
2023-05-22T10:37:32.653Z,25.14
2023-05-22T10:38:33.082Z,25.14
2023-05-22T10:39:32.774Z,25.12
2023-05-22T10:40:33.095Z,25.12
2023-05-22T10:41:32.895Z,25.12
2023-05-22T10:42:34.117Z,25.12
2023-05-22T10:43:33.055Z,25.11
2023-05-22T10:44:33.066Z,25.10
2023-05-22T10:45:33.345Z,25.10
2023-05-22T10:46:33.253Z,25.09
2023-05-22T10:47:33.375Z,25.09
2023-05-22T10:48:33.306Z,25.10
2023-05-22T10:49:33.393Z,25.09
2023-05-22T10:50:33.553Z,25.09
2023-05-22T10:51:34.511Z,25.08
2023-05-22T10:52:33.596Z,25.09
2023-05-22T10:53:34.086Z,25.08
2023-05-22T10:54:33.844Z,25.08
2023-05-22T10:55:34.736Z,25.08
2023-05-22T10:56:33.793Z,25.08
2023-05-22T10:57:33.854Z,25.08
2023-05-22T10:58:34.093Z,25.08
2023-05-22T10:59:33.983Z,25.08
2023-05-22T11:00:34.050Z,25.08
2023-05-22T11:01:34.134Z,25.08
2023-05-22T11:03:17.170Z,25.07
2023-05-22T11:03:34.199Z,25.07
2023-05-22T11:04:34.192Z,25.07
2023-05-22T11:06:34.284Z,25.06
2023-05-22T11:07:34.131Z,25.07
2023-05-22T11:08:34.609Z,25.08
2023-05-22T11:09:34.116Z,25.06
2023-05-22T11:10:34.120Z,25.07
2023-05-22T11:11:34.126Z,25.07
2023-05-22T11:12:34.098Z,25.07
2023-05-22T11:13:34.630Z,25.07
2023-05-22T11:14:34.110Z,25.07
2023-05-22T11:15:34.078Z,25.07
2023-05-22T11:16:34.146Z,25.07
2023-05-22T11:17:34.106Z,25.07
2023-05-22T11:18:34.064Z,25.07
2023-05-22T11:19:34.140Z,25.06
2023-05-22T11:20:34.040Z,25.08
2023-05-22T11:21:34.043Z,25.07
2023-05-22T11:22:34.166Z,25.07
2023-05-22T11:23:34.104Z,25.07
2023-05-22T11:24:34.626Z,25.08
2023-05-22T11:25:34.161Z,25.08
2023-05-22T11:26:34.225Z,25.08
2023-05-22T11:27:35.314Z,25.08
2023-05-22T11:28:34.357Z,25.08
2023-05-22T11:29:34.602Z,25.08
2023-05-22T11:30:34.469Z,25.08
2023-05-22T11:31:34.596Z,25.08
2023-05-22T11:32:34.610Z,25.08
2023-05-22T11:33:35.112Z,25.08
2023-05-22T11:34:34.771Z,25.08
2023-05-22T11:35:35.793Z,25.09
2023-05-22T11:36:34.888Z,25.08
2023-05-22T11:37:34.908Z,25.08
2023-05-22T11:38:35.106Z,25.09
2023-05-22T11:39:35.068Z,25.08
2023-05-22T11:40:35.091Z,25.08
2023-05-22T11:41:35.220Z,25.08
2023-05-22T11:42:35.238Z,25.09
2023-05-22T11:43:35.609Z,25.08
2023-05-22T11:44:35.365Z,25.09
2023-05-22T11:45:35.407Z,25.09
2023-05-22T11:46:35.504Z,25.09
2023-05-22T11:47:35.627Z,25.09
2023-05-22T11:48:35.628Z,25.09
2023-05-22T11:49:35.670Z,25.10
2023-05-22T11:50:42.164Z,25.10
2023-05-22T11:51:35.742Z,25.09
2023-05-22T11:52:35.692Z,25.09
2023-05-22T11:53:35.766Z,25.10
2023-05-22T11:54:38.481Z,25.10
2023-05-22T11:55:35.686Z,25.10
2023-05-22T11:56:35.663Z,25.10
2023-05-22T11:57:35.649Z,25.10
2023-05-22T11:58:36.109Z,25.10
2023-05-22T11:59:35.649Z,25.10
2023-05-22T12:00:35.737Z,25.10
2023-05-22T12:01:35.620Z,25.11
2023-05-22T12:02:35.920Z,25.11
2023-05-22T12:03:35.708Z,25.10
2023-05-22T12:04:35.625Z,25.11
2023-05-22T12:05:35.593Z,25.11
2023-05-22T12:06:35.608Z,25.10
2023-05-22T12:07:35.587Z,25.11
2023-05-22T12:08:35.623Z,25.11
2023-05-22T12:09:35.556Z,25.11
2023-05-22T12:10:35.736Z,25.12
2023-05-22T12:11:35.554Z,25.12
2023-05-22T12:12:35.618Z,25.11
2023-05-22T12:13:35.556Z,25.11
2023-05-22T12:14:35.532Z,25.12
2023-05-22T12:15:35.588Z,25.11
2023-05-22T12:16:35.709Z,25.12
2023-05-22T12:17:35.750Z,25.12
2023-05-22T12:18:36.120Z,25.12
2023-05-22T12:19:35.946Z,25.12
2023-05-22T12:20:35.929Z,25.11
2023-05-22T12:21:35.930Z,25.12
2023-05-22T12:22:35.984Z,25.13
2023-05-22T12:23:36.048Z,25.12
2023-05-22T12:24:36.104Z,25.13
2023-05-22T12:25:36.168Z,25.12
2023-05-22T12:26:36.356Z,25.12
2023-05-22T12:27:37.989Z,25.12
2023-05-22T12:28:36.290Z,25.13
2023-05-22T12:29:36.286Z,25.13
2023-05-22T12:30:36.310Z,25.13
2023-05-22T12:31:36.360Z,25.12
2023-05-22T12:32:36.307Z,25.14
2023-05-22T12:33:36.616Z,25.14
2023-05-22T12:34:36.250Z,25.14
2023-05-22T12:35:36.232Z,25.15
2023-05-22T12:36:36.220Z,25.14
2023-05-22T12:37:36.212Z,25.15
2023-05-22T12:38:36.620Z,25.15
2023-05-22T12:39:36.210Z,25.15
2023-05-22T12:40:36.194Z,25.15
2023-05-22T12:41:36.183Z,25.15
2023-05-22T12:42:36.299Z,25.15
2023-05-22T12:43:36.173Z,25.15
2023-05-22T12:44:36.159Z,25.15
2023-05-22T12:45:36.161Z,25.15
2023-05-22T12:46:36.189Z,25.15
2023-05-22T12:47:36.185Z,25.15
2023-05-22T12:48:36.628Z,25.14
2023-05-22T12:49:36.125Z,25.14
2023-05-22T12:50:36.119Z,25.13
2023-05-22T12:51:36.176Z,25.14
2023-05-22T12:52:36.393Z,25.14
2023-05-22T12:53:36.632Z,25.15
2023-05-22T12:54:36.344Z,25.15
2023-05-22T12:55:36.405Z,25.15
2023-05-22T12:56:36.483Z,25.16
2023-05-22T12:57:36.530Z,25.14